Aviation Digital Data Service (ADDS)

Output produced by METARs form (1345 UTC 26 May 2018)
found at http://www.aviationweather.gov/adds/metars/
 
KTCC 261122Z 2612/2712 26006KT P6SM SKC 
     FM261800 20010KT P6SM FEW250 
     FM262000 21013G22KT P6SM SCT250 
     FM270100 18010KT P6SM BKN250 
     FM270700 16008KT P6SM SCT250
       
KTCL 261123Z 2612/2712 00000KT P6SM BKN005 
     FM261330 19003KT P6SM BKN010 
     FM261500 19005KT P6SM BKN025 
     FM261800 19006KT P6SM VCTS BKN045CB 
     FM270000 19004KT P6SM SCT100 BKN250
       
TAF KTCM 261303Z 2613/2719 VRB06KT 9999 FEW070 QNH3010INS 
     BECMG 2616/2617 26006KT 9999 BKN020 QNH3014INS 
     BECMG 2708/2709 VRB06KT 9999 BKN050 QNH3023INS TX23/2621Z TN08/2613Z
       
KTCS 261138Z 2612/2712 28007KT P6SM SCT250 
     FM261800 20017G24KT P6SM SCT170 BKN250 
     FM270300 24012KT P6SM BKN250
       
KTEB 261141Z 2612/2718 19006KT P6SM FEW250 
     FM261400 25005KT P6SM FEW250 
     FM262000 23008KT P6SM VCTS SCT060CB BKN120 
     FM270100 VRB04KT 5SM -SHRA VCTS SCT050CB BKN120 
     FM270500 00000KT 5SM -SHRA SCT050 OVC100 
     FM271100 05005KT 5SM -RA OVC020 
     FM271200 05006KT 5SM -RA OVC015
       
KTEX 261139Z 2612/2712 14006KT P6SM SKC 
     FM261800 16012G20KT P6SM SCT250 
     FM262000 16015G25KT P6SM SCT250 
     FM270400 19012KT P6SM BKN200 
     FM270900 16010KT P6SM SCT150
       
TAF KTIK 260900Z 2609/2715 15009KT 9999 FEW060 QNH2983INS 
     BECMG 2613/2614 17010G15KT 9999 SKC QNH2982INS 
     BECMG 2616/2617 13006KT 9999 SCT030 QNH2977INS 
     BECMG 2714/2715 15012G20KT 9999 FEW050 QNH2986INS TX30/2621Z TN19/2611Z
       
KTIX 261127Z 2612/2712 11004KT P6SM FEW020 SCT050 BKN250 
     FM261500 11010KT P6SM VCSH SCT025 SCT040 OVC250 
     FM262000 12012KT P6SM -RA VCSH FEW025 BKN080 OVC150 
     FM270100 12009KT P6SM VCSH SCT025 BKN100 OVC200 
     FM270800 13011KT P6SM -SHRA SCT020 OVC070
       
KTLH 261125Z 2611/2712 09006KT 1SM BR BKN003 
     FM261230 14007KT P6SM -SHRA VCTS SCT050CB 
     FM270000 13005KT P6SM BKN050
       
KTMB 261137Z 2612/2712 VRB05KT P6SM SHRA BKN050 BKN100 
     FM261400 13015KT P6SM SHRA VCTS FEW007 SCT015 BKN035CB
       
KTOI 261223Z 2612/2712 00000KT P6SM SCT003 
     TEMPO 2612/2614 BKN003 
     FM261500 13005KT P6SM BKN025 
     FM261800 14006KT P6SM VCTS BKN045CB 
     FM270000 12003KT P6SM SCT080 OVC250
       
KTOL 261124Z 2612/2712 24006KT P6SM VCSH SCT050 BKN120 
     FM261500 24006KT P6SM SCT045 BKN150 
     TEMPO 2618/2620 3SM -TSRA BKN035CB 
     FM262100 23010KT P6SM SCT060 
     FM262300 24004KT P6SM SCT080
       
KTOP 261127Z 2612/2712 21006KT P6SM FEW090
       
KTPA 261129Z 2612/2718 12008KT P6SM VCSH SCT020 BKN040 OVC100 
     TEMPO 2612/2615 6SM SHRA BKN010 OVC050 
     FM261800 12010G15KT P6SM SHRA VCTS BKN040CB OVC100 
     FM270300 11011G16KT P6SM SHRA VCTS BKN020CB OVC030 
     FM270600 10014G20KT P6SM SHRA VCTS BKN015CB OVC030
       
KTPH 261135Z 2612/2712 33011G20KT P6SM VCSH FEW050 SCT080 BKN200 
     FM262000 32020G30KT P6SM VCTS SCT040CB BKN060 
     FM270000 33030G40KT P6SM VCSH SCT050 BKN120 
     FM270500 34010G20KT P6SM SCT060 BKN120
       
KTRI 261329Z 2613/2712 VRB03KT 2SM -SHRA BR BKN050 OVC080 
     TEMPO 2613/2616 1 1/2SM +SHRA BR SCT009 BKN020 
     FM261600 VRB03KT P6SM BKN040 
     FM261800 22005KT P6SM BKN050 
     FM262100 22005KT P6SM VCSH BKN060 
     FM270400 00000KT 5SM BR SCT100
       
KTRK 261120Z 2612/2712 00000KT P6SM OVC040 
     FM261700 31006KT P6SM -SHRA SCT035 OVC050 
     FM262300 34007KT P6SM VCSH SCT045 BKN060 
     FM270300 27005KT P6SM SCT040 OVC070
       
KTRM 261120Z 2612/2712 34018G28KT P6SM SKC 
     FM261600 33012G20KT P6SM SKC 
     FM270100 33018G28KT P6SM SKC 
     FM270900 33011KT P6SM SKC
       
KTTD 261132Z 2612/2712 VRB03KT P6SM OVC040 
     FM261400 VRB03KT P6SM -DZ BKN025 OVC035 
     FM261900 25004KT P6SM BKN050 
     FM262300 28006KT P6SM SCT050
       
KTTN 261135Z 2612/2712 24007KT P6SM SCT210 
     FM261900 25008KT P6SM VCTS BKN060CB 
     FM262100 26008KT P6SM BKN060 
     PROB30 2621/2623 5SM +TSRA BKN060CB 
     FM262300 26007KT P6SM +SHRA BKN060 
     PROB30 2623/2701 5SM TS BKN060CB 
     FM270200 26005KT P6SM OVC070 
     PROB30 2702/2705 5SM +SHRA 
     FM270500 20004KT P6SM OVC060 
     PROB30 2705/2706 5SM -SHRA 
     FM270600 18004KT 6SM -SHRA OVC060 
     FM271100 10005KT 3SM -SHRA OVC009
       
KTUL 261120Z 2612/2712 18005KT P6SM SCT025 SCT250
       
KTUP 261129Z 2612/2712 00000KT P6SM OVC007 
     FM261600 VRB03KT P6SM VCTS SCT040CB SCT250 
     TEMPO 2619/2623 3SM TSRA BKN040CB 
     FM270300 VRB03KT P6SM SCT060 BKN250
       
KTUS 261120Z 2612/2712 14005KT P6SM SCT200 BKN250 
     FM261700 21008KT P6SM BKN250 
     FM262000 26014G25KT P6SM BKN250 
     FM270300 27010KT P6SM SCT250 
     FM270800 16005KT P6SM SKC
       
KTVC 261120Z 2612/2712 22004KT P6SM SCT110 
     FM261500 24006KT P6SM VCSH FEW045 SCT100 
     FM262000 27007KT P6SM VCSH SCT100 
     FM270000 VRB03KT P6SM VCSH BKN100 
     FM270600 VRB03KT P6SM SCT090
       
KTVL 261120Z 2612/2712 VRB04KT P6SM SCT035 BKN100 
     FM261800 19007KT P6SM -SHRA SCT035 OVC050 
     FM262300 VRB06KT P6SM VCSH SCT045 BKN060 
     FM270100 18004KT P6SM SCT040 BKN070 
     FM270600 VRB03KT P6SM SCT060 SCT090
       
KTWF 261120Z 2612/2712 20011KT P6SM SCT150 
     FM261400 25010G20KT P6SM BKN150 
     FM262000 28015G25KT P6SM BKN150 
     FM262300 28015G25KT P6SM VCTS SCT050CB BKN100 
     TEMPO 2623/2702 VRB25G35KT -TSRA BKN050CB 
     FM270200 24010G20KT P6SM BKN150
       
KTXK 261320Z 2613/2712 VRB02KT P6SM SCT250 
     FM261400 28004KT P6SM SCT070 SCT120 
     FM261600 30005KT P6SM SCT050 BKN150 
     FM270100 VRB03KT P6SM FEW050 SCT250 
     FM270600 09003KT 6SM BR SCT250
       
KTYR 261149Z 2612/2712 21006KT P6SM BKN150 
     FM261600 18007KT P6SM FEW050 BKN090 
     FM262000 20006KT P6SM SCT090 SCT250 
     FM270200 14004KT P6SM SCT250
       
KTYS 261132Z 2612/2712 18003KT P6SM SCT045 OVC090 
     FM262100 23006KT P6SM VCTS BKN050CB 
     FM270200 20003KT P6SM SCT050 BKN100 
     FM270600 VRB02KT P6SM SCT100